Time;durP1;ratioP1;P1;durP2;ratioP2;P2;SDS_P1;SDS_P2;PMS_P1;PMS_P2;Temp;Humidity;BMP_temperature;BMP_pressure;BME280_temperature;BME280_humidity;BME280_pressure;Samples;Min_cycle;Max_cycle;Signal;HPM_P1;HPM_P2
2023/04/27 00:00:06;;;;;;;6.55;3.85;;;;;;;5.39;100.00;95868.84;1023811;28;20031;-71
2023/04/27 00:00:37;;;;;;;6.07;4.00;;;;;;;5.40;100.00;95867.84;1032773;28;20026;-71
2023/04/27 00:01:11;;;;;;;9.00;3.92;;;;;;;5.39;100.00;95868.84;1033820;28;20257;-72
2023/04/27 00:01:41;;;;;;;10.68;4.18;;;;;;;5.33;100.00;95859.38;1032191;28;20026;-71
2023/04/27 00:02:12;;;;;;;7.65;3.55;;;;;;;5.35;100.00;95856.53;1033644;28;20253;-71
2023/04/27 00:02:42;;;;;;;6.97;3.80;;;;;;;5.39;100.00;95868.84;1033050;28;20022;-71
2023/04/27 00:03:13;;;;;;;8.45;3.95;;;;;;;5.41;100.00;95864.22;1026382;28;20031;-71
2023/04/27 00:03:44;;;;;;;7.00;3.63;;;;;;;5.41;100.00;95858.22;1029666;28;20060;-70
2023/04/27 00:04:15;;;;;;;5.95;3.90;;;;;;;5.40;100.00;95859.25;1026418;28;20025;-70
2023/04/27 00:04:45;;;;;;;6.03;4.05;;;;;;;5.41;100.00;95861.63;1026609;28;20266;-71
2023/04/27 00:05:16;;;;;;;13.18;4.22;;;;;;;5.41;100.00;95860.81;1034432;28;20029;-71
2023/04/27 00:05:47;;;;;;;7.55;4.13;;;;;;;5.41;100.00;95858.22;1034818;28;20025;-71
2023/04/27 00:06:17;;;;;;;10.00;3.95;;;;;;;5.40;100.00;95860.03;1042406;28;20017;-71
2023/04/27 00:06:48;;;;;;;7.88;4.00;;;;;;;5.39;100.00;95858.44;1030049;28;20030;-71
2023/04/27 00:07:18;;;;;;;8.40;3.70;;;;;;;5.38;100.00;95856.84;1030271;28;20049;-71
2023/04/27 00:07:49;;;;;;;7.20;3.85;;;;;;;5.37;100.00;95863.09;1025041;28;20050;-71
2023/04/27 00:08:19;;;;;;;7.63;4.05;;;;;;;5.37;100.00;95855.28;1022647;28;20027;-71
2023/04/27 00:08:50;;;;;;;7.80;4.45;;;;;;;5.38;100.00;95851.66;1029569;28;20029;-71
2023/04/27 00:09:20;;;;;;;8.27;3.95;;;;;;;5.32;100.00;95852.56;1029947;28;20038;-70
2023/04/27 00:09:51;;;;;;;6.18;3.90;;;;;;;5.34;100.00;95847.94;1041341;28;20037;-71
2023/04/27 00:10:21;;;;;;;14.93;3.88;;;;;;;5.35;100.00;95856.53;1038354;28;20033;-71
2023/04/27 00:10:52;;;;;;;5.68;3.30;;;;;;;5.34;100.00;95854.94;1034225;28;20034;-71
2023/04/27 00:11:22;;;;;;;6.20;3.72;;;;;;;5.32;100.00;95857.75;1026122;28;20042;-70
2023/04/27 00:11:53;;;;;;;6.43;3.60;;;;;;;5.33;100.00;95854.16;1030268;28;20606;-71
2023/04/27 00:12:23;;;;;;;8.77;4.22;;;;;;;5.33;100.00;95854.16;1022298;29;20031;-70
2023/04/27 00:12:54;;;;;;;5.70;3.65;;;;;;;5.31;100.00;95850.97;1022202;28;20091;-71
2023/04/27 00:13:24;;;;;;;6.30;4.25;;;;;;;5.35;100.00;95852.09;1026284;28;20373;-71
2023/04/27 00:13:55;;;;;;;7.55;3.95;;;;;;;5.35;100.00;95851.31;1026185;28;20158;-71
2023/04/27 00:14:27;;;;;;;7.68;3.40;;;;;;;5.34;100.00;95853.13;1022361;29;20035;-71
2023/04/27 00:14:57;;;;;;;6.07;3.60;;;;;;;5.33;100.00;95856.75;1023092;28;20125;-72
2023/04/27 00:15:28;;;;;;;6.55;3.65;;;;;;;5.34;100.00;95855.72;1034542;28;20284;-71
2023/04/27 00:16:02;;;;;;;5.57;3.47;;;;;;;5.33;100.00;95854.16;1030582;28;20033;-71
2023/04/27 00:16:32;;;;;;;5.88;3.97;;;;;;;5.34;100.00;95855.72;1034151;28;20026;-71
2023/04/27 00:17:03;;;;;;;6.38;3.63;;;;;;;5.34;100.00;95853.13;1034277;28;20268;-71
2023/04/27 00:17:33;;;;;;;10.18;4.63;;;;;;;5.34;100.00;95850.53;1035446;28;20030;-71
2023/04/27 00:18:03;;;;;;;5.05;3.17;;;;;;;5.35;100.00;95852.09;1038223;28;20044;-72
2023/04/27 00:18:34;;;;;;;5.22;3.60;;;;;;;5.35;100.00;95853.91;1037787;28;20079;-70
2023/04/27 00:19:05;;;;;;;10.75;3.90;;;;;;;5.34;100.00;95853.13;1037892;28;20033;-71
2023/04/27 00:19:36;;;;;;;9.55;3.83;;;;;;;5.31;100.00;95845.78;1038238;28;20068;-72
2023/04/27 00:20:10;;;;;;;9.10;4.28;;;;;;;5.33;100.00;95855.94;1034186;28;20737;-71
2023/04/27 00:20:41;;;;;;;6.47;3.92;;;;;;;5.32;100.00;95847.34;1034190;28;20050;-71
2023/04/27 00:21:11;;;;;;;12.93;4.20;;;;;;;5.32;100.00;95852.56;1030689;28;20280;-71
2023/04/27 00:21:41;;;;;;;5.60;3.45;;;;;;;5.27;100.00;95843.88;1030004;28;20030;-71
2023/04/27 00:22:12;;;;;;;6.20;4.25;;;;;;;5.30;100.00;95843.38;1022185;29;20035;-71
2023/04/27 00:22:43;;;;;;;8.75;4.03;;;;;;;5.27;100.00;95841.25;1022291;28;20031;-70
2023/04/27 00:23:13;;;;;;;5.88;3.70;;;;;;;5.31;100.00;95853.59;1022048;28;20034;-72
2023/04/27 00:23:44;;;;;;;5.75;3.25;;;;;;;5.25;100.00;95844.06;1026099;28;20031;-71
2023/04/27 00:24:15;;;;;;;7.53;3.70;;;;;;;5.30;100.00;95846.81;1022456;28;20038;-72
2023/04/27 00:24:45;;;;;;;11.10;3.63;;;;;;;5.29;100.00;95852.22;1026124;28;20026;-71
2023/04/27 00:25:16;;;;;;;8.52;3.78;;;;;;;5.23;100.00;95845.31;1026128;28;20062;-71
2023/04/27 00:25:46;;;;;;;8.35;4.05;;;;;;;5.24;100.00;95839.91;1026309;28;20034;-72
2023/04/27 00:26:16;;;;;;;5.32;3.47;;;;;;;5.28;100.00;95853.25;1026101;28;20173;-71
2023/04/27 00:26:47;;;;;;;9.35;3.95;;;;;;;5.27;100.00;95854.28;1020361;28;20449;-71
2023/04/27 00:27:17;;;;;;;7.97;3.97;;;;;;;5.27;100.00;95852.47;1030141;28;20033;-71
2023/04/27 00:27:48;;;;;;;7.65;3.83;;;;;;;5.27;100.00;95849.84;1030243;28;20448;-71
2023/04/27 00:28:18;;;;;;;9.05;3.90;;;;;;;5.26;100.00;95848.25;1030011;28;20750;-71
2023/04/27 00:28:49;;;;;;;7.68;4.10;;;;;;;5.27;100.00;95846.47;1021655;28;20062;-72
2023/04/27 00:29:19;;;;;;;5.72;3.80;;;;;;;5.26;100.00;95850.06;1025971;28;20050;-72
2023/04/27 00:29:50;;;;;;;5.55;3.67;;;;;;;5.20;100.00;95844.75;1025787;28;20038;-71
2023/04/27 00:30:20;;;;;;;7.78;3.25;;;;;;;5.24;100.00;95849.50;1026092;28;20498;-72
2023/04/27 00:30:53;;;;;;;6.32;3.75;;;;;;;5.17;100.00;95842.59;1026203;28;20031;-70
2023/04/27 00:31:23;;;;;;;6.45;3.38;;;;;;;5.24;100.00;95849.50;1022279;29;20513;-71
2023/04/27 00:31:54;;;;;;;8.60;3.85;;;;;;;5.22;100.00;95844.53;1018586;28;20263;-71
2023/04/27 00:32:25;;;;;;;9.05;3.97;;;;;;;5.24;100.00;95850.31;1026565;28;20777;-70
2023/04/27 00:32:55;;;;;;;10.52;3.72;;;;;;;5.22;100.00;95849.72;1030654;28;20037;-71
2023/04/27 00:33:25;;;;;;;9.00;4.07;;;;;;;5.23;100.00;95848.72;1030137;28;20058;-70
2023/04/27 00:33:56;;;;;;;5.97;3.17;;;;;;;5.23;100.00;95846.13;1034231;28;20041;-71
2023/04/27 00:34:26;;;;;;;7.22;3.95;;;;;;;5.23;100.00;95846.13;1034255;28;20029;-71
2023/04/27 00:34:57;;;;;;;14.50;4.32;;;;;;;5.25;100.00;95851.88;1028130;28;20030;-70
2023/04/27 00:35:27;;;;;;;8.32;3.63;;;;;;;5.23;100.00;95848.72;1027439;28;20038;-71
2023/04/27 00:36:00;;;;;;;7.47;4.07;;;;;;;5.23;100.00;95848.72;1034113;28;20026;-71
2023/04/27 00:36:32;;;;;;;8.45;3.72;;;;;;;5.22;100.00;95847.13;1038608;28;20940;-71
2023/04/27 00:37:03;;;;;;;7.20;3.53;;;;;;;5.22;100.00;95846.34;1034579;28;20277;-71
2023/04/27 00:37:34;;;;;;;6.97;3.63;;;;;;;5.22;100.00;95851.53;1032304;28;20332;-71
2023/04/27 00:38:05;;;;;;;10.70;3.95;;;;;;;5.14;100.00;95837.84;1034130;28;20269;-71
2023/04/27 00:38:35;;;;;;;8.43;3.72;;;;;;;5.20;100.00;95849.19;1033083;28;20081;-71
2023/04/27 00:39:06;;;;;;;9.07;4.22;;;;;;;5.20;100.00;95855.16;1038230;28;20041;-71
2023/04/27 00:39:36;;;;;;;6.07;3.65;;;;;;;5.20;100.00;95856.97;1029994;28;20034;-71
2023/04/27 00:40:07;;;;;;;10.85;3.92;;;;;;;5.16;100.00;95848.84;1025956;28;20026;-71
2023/04/27 00:40:38;;;;;;;6.90;3.70;;;;;;;5.12;100.00;95844.28;1022159;29;20134;-71
2023/04/27 00:41:08;;;;;;;8.15;3.80;;;;;;;5.17;100.00;95854.81;1022372;28;20409;-71
2023/04/27 00:41:39;;;;;;;7.38;4.00;;;;;;;5.14;100.00;95856.06;1026079;28;20027;-72
2023/04/27 00:42:10;;;;;;;6.78;3.55;;;;;;;5.10;100.00;95844.53;1024550;28;20033;-71
2023/04/27 00:42:40;;;;;;;8.10;4.18;;;;;;;5.15;100.00;95856.84;1022304;28;20039;-71
2023/04/27 00:43:11;;;;;;;7.50;3.53;;;;;;;5.08;100.00;95845.75;1026338;28;20267;-72
2023/04/27 00:43:42;;;;;;;5.25;3.70;;;;;;;5.12;100.00;95841.69;1027667;28;20034;-71
2023/04/27 00:44:13;;;;;;;6.93;3.83;;;;;;;5.11;100.00;95850.53;1018446;29;20023;-71
2023/04/27 00:44:43;;;;;;;6.10;3.50;;;;;;;5.08;100.00;95851.75;1022084;29;20271;-71
2023/04/27 00:45:13;;;;;;;8.18;3.35;;;;;;;5.10;100.00;95848.94;1024226;28;20031;-71
2023/04/27 00:45:44;;;;;;;9.15;3.63;;;;;;;5.09;100.00;95848.13;1034003;28;20026;-71
2023/04/27 00:46:15;;;;;;;7.30;3.92;;;;;;;5.09;100.00;95847.34;1030161;28;20026;-72
2023/04/27 00:46:45;;;;;;;8.85;4.10;;;;;;;5.08;100.00;95850.97;1030041;28;20026;-71
2023/04/27 00:47:16;;;;;;;7.20;4.00;;;;;;;5.08;100.00;95856.16;1029483;28;20049;-71
2023/04/27 00:47:46;;;;;;;6.80;3.95;;;;;;;5.06;100.00;95843.38;1026150;28;20042;-71
2023/04/27 00:48:17;;;;;;;7.15;4.00;;;;;;;5.07;100.00;95849.38;1030312;28;20018;-72
2023/04/27 00:48:47;;;;;;;11.93;4.50;;;;;;;5.02;100.00;95841.47;1033376;28;20036;-71
2023/04/27 00:49:18;;;;;;;7.97;3.50;;;;;;;5.06;100.00;95853.00;1034000;28;20049;-71
2023/04/27 00:49:49;;;;;;;6.13;3.45;;;;;;;5.06;100.00;95856.38;1026277;28;20098;-71
2023/04/27 00:50:26;;;;;;;6.93;4.38;;;;;;;5.08;100.00;95850.97;1025983;28;20728;-71
2023/04/27 00:50:56;;;;;;;5.82;3.60;;;;;;;5.01;100.00;95834.69;1030059;28;20478;-70
2023/04/27 00:51:29;;;;;;;7.40;3.60;;;;;;;5.06;100.00;95851.16;1026119;28;20274;-70
2023/04/27 00:51:59;;;;;;;7.25;4.40;;;;;;;5.04;100.00;95852.44;1025744;28;20031;-71
2023/04/27 00:52:30;;;;;;;10.60;3.55;;;;;;;4.99;100.00;95847.09;1022066;29;20330;-71
2023/04/27 00:53:00;;;;;;;5.47;3.75;;;;;;;4.99;100.00;95845.28;1022208;28;20026;-71
2023/04/27 00:53:31;;;;;;;12.13;3.78;;;;;;;5.01;100.00;95855.47;1018208;29;20102;-71
2023/04/27 00:54:01;;;;;;;5.80;3.78;;;;;;;4.97;100.00;95855.94;1018124;29;20040;-71
2023/04/27 00:54:32;;;;;;;7.90;4.07;;;;;;;4.95;100.00;95855.34;1017948;29;20039;-70
2023/04/27 00:55:03;;;;;;;10.13;4.72;;;;;;;4.88;100.00;95846.88;1014348;29;20276;-71
2023/04/27 00:55:34;;;;;;;5.22;3.72;;;;;;;4.97;100.00;95858.53;1015973;29;20031;-71
2023/04/27 00:56:05;;;;;;;9.35;3.67;;;;;;;4.95;100.00;95863.16;1020406;29;20036;-71
2023/04/27 00:56:36;;;;;;;6.70;3.80;;;;;;;4.93;100.00;95862.59;1026290;28;20388;-71
2023/04/27 00:57:06;;;;;;;7.25;3.95;;;;;;;4.87;100.00;95855.69;1022398;28;20277;-71
2023/04/27 00:57:37;;;;;;;5.82;3.60;;;;;;;4.85;100.00;95847.31;1021922;29;20752;-70
2023/04/27 00:58:08;;;;;;;8.82;4.65;;;;;;;4.89;100.00;95856.25;1018395;29;20031;-71
2023/04/27 00:58:38;;;;;;;11.10;4.32;;;;;;;4.77;100.00;95845.03;1021793;28;20282;-70
2023/04/27 00:59:09;;;;;;;7.68;4.22;;;;;;;4.88;100.00;95856.47;1026068;28;20027;-71
2023/04/27 00:59:39;;;;;;;6.85;3.40;;;;;;;4.86;100.00;95859.31;1025679;28;20026;-71
2023/04/27 01:00:10;;;;;;;7.47;3.85;;;;;;;4.78;100.00;95849.22;1026090;28;20053;-71
2023/04/27 01:00:41;;;;;;;8.50;4.05;;;;;;;4.84;100.00;95860.53;1021973;28;20469;-72
2023/04/27 01:01:12;;;;;;;7.53;4.13;;;;;;;4.80;100.00;95852.41;1033862;28;20022;-71
2023/04/27 01:01:42;;;;;;;10.10;4.22;;;;;;;4.79;100.00;95856.00;1030190;28;20057;-71
2023/04/27 01:02:13;;;;;;;9.05;4.15;;;;;;;4.78;100.00;95859.63;1026096;28;20325;-71
2023/04/27 01:02:44;;;;;;;9.07;4.55;;;;;;;4.75;100.00;95847.06;1025722;28;20027;-71
2023/04/27 01:03:15;;;;;;;6.53;4.00;;;;;;;4.74;100.00;95858.47;1018148;29;20131;-71
2023/04/27 01:03:46;;;;;;;7.43;4.22;;;;;;;4.72;100.00;95857.91;1025899;28;20277;-71
2023/04/27 01:04:17;;;;;;;7.78;4.47;;;;;;;4.70;100.00;95854.75;1026137;28;20034;-71
2023/04/27 01:04:49;;;;;;;7.78;3.67;;;;;;;4.69;100.00;95858.34;1026004;28;20420;-71
2023/04/27 01:05:19;;;;;;;5.05;3.97;;;;;;;4.62;100.00;95847.25;1026379;28;20030;-71
2023/04/27 01:05:50;;;;;;;9.35;4.32;;;;;;;4.63;100.00;95854.06;1022041;29;20377;-71
2023/04/27 01:06:20;;;;;;;6.63;3.40;;;;;;;4.63;100.00;95854.06;1022366;28;20421;-71
2023/04/27 01:06:51;;;;;;;7.18;4.22;;;;;;;4.61;100.00;95850.88;1022266;28;20703;-71
2023/04/27 01:07:25;;;;;;;6.50;3.70;;;;;;;4.57;100.00;95847.13;1030057;28;20032;-71
2023/04/27 01:07:55;;;;;;;5.43;3.88;;;;;;;4.56;100.00;95859.34;1021922;29;20038;-71
2023/04/27 01:08:27;;;;;;;5.00;3.65;;;;;;;4.56;100.00;95856.75;1022113;29;20275;-71
2023/04/27 01:08:58;;;;;;;7.47;4.20;;;;;;;4.46;100.00;95846.06;1021862;28;20413;-71
2023/04/27 01:09:28;;;;;;;9.90;4.60;;;;;;;4.45;100.00;95842.69;1022499;28;20294;-71
2023/04/27 01:09:59;;;;;;;5.60;4.15;;;;;;;4.51;100.00;95850.63;1022146;29;20405;-71
2023/04/27 01:10:29;;;;;;;9.73;4.10;;;;;;;4.49;100.00;95854.25;1022309;28;20051;-71
2023/04/27 01:11:00;;;;;;;7.70;4.30;;;;;;;4.48;100.00;95857.81;1030137;28;20037;-71
2023/04/27 01:11:31;;;;;;;6.72;4.28;;;;;;;4.40;100.00;95839.19;1030166;28;20831;-71
2023/04/27 01:12:02;;;;;;;5.65;3.83;;;;;;;4.40;100.00;95845.16;1038171;28;20491;-71
2023/04/27 01:12:32;;;;;;;7.53;4.25;;;;;;;4.42;100.00;95847.53;1034093;28;20269;-71
2023/04/27 01:13:03;;;;;;;15.18;4.20;;;;;;;4.42;100.00;95853.50;1025973;28;20373;-71
2023/04/27 01:13:33;;;;;;;5.97;4.30;;;;;;;4.42;100.00;95853.50;1025996;28;20030;-71
2023/04/27 01:14:05;;;;;;;8.10;4.50;;;;;;;4.34;100.00;95840.84;1026177;28;20042;-71
2023/04/27 01:14:35;;;;;;;8.85;4.18;;;;;;;4.37;100.00;95850.78;1026054;28;20050;-72
2023/04/27 01:15:07;;;;;;;7.93;4.20;;;;;;;4.37;100.00;95850.00;1038239;28;20275;-71
2023/04/27 01:15:37;;;;;;;8.15;4.82;;;;;;;4.33;100.00;95854.84;1037926;28;20042;-72
2023/04/27 01:16:07;;;;;;;7.80;3.90;;;;;;;4.17;100.00;95824.28;1041974;28;20271;-72
2023/04/27 01:16:39;;;;;;;10.13;4.63;;;;;;;4.31;100.00;95851.66;1038147;28;20084;-71
2023/04/27 01:17:10;;;;;;;5.28;3.83;;;;;;;4.30;100.00;95850.09;1034138;28;20092;-71
2023/04/27 01:17:41;;;;;;;7.47;4.75;;;;;;;4.29;100.00;95864.06;1034011;28;20342;-72
2023/04/27 01:18:12;;;;;;;8.75;4.10;;;;;;;4.26;100.00;95854.16;1029894;28;20300;-71
2023/04/27 01:18:43;;;;;;;5.80;4.05;;;;;;;4.24;100.00;95854.34;1031137;28;20269;-71
2023/04/27 01:19:13;;;;;;;10.25;4.43;;;;;;;4.23;100.00;95854.59;1031515;28;20022;-71
2023/04/27 01:19:44;;;;;;;5.75;4.10;;;;;;;4.21;100.00;95856.59;1031336;28;20038;-72
2023/04/27 01:20:14;;;;;;;7.38;3.80;;;;;;;4.14;100.00;95846.28;1031366;28;20050;-72
2023/04/27 01:20:45;;;;;;;7.90;3.90;;;;;;;4.19;100.00;95856.00;1031560;28;20120;-71
2023/04/27 01:21:15;;;;;;;17.55;5.15;;;;;;;4.15;100.00;95854.88;1031114;28;20029;-71
2023/04/27 01:21:45;;;;;;;6.03;3.80;;;;;;;4.13;100.00;95856.91;1025709;28;20034;-71
2023/04/27 01:22:16;;;;;;;6.43;3.78;;;;;;;4.08;100.00;95849.75;1022075;28;20485;-72
2023/04/27 01:22:47;;;;;;;8.88;4.07;;;;;;;4.07;100.00;95855.19;1026070;28;20093;-72
2023/04/27 01:23:17;;;;;;;7.32;4.60;;;;;;;4.04;100.00;95858.22;1025888;28;20031;-71
2023/04/27 01:23:48;;;;;;;8.38;3.88;;;;;;;4.00;100.00;95850.84;1026189;28;20034;-71
2023/04/27 01:24:18;;;;;;;6.13;4.18;;;;;;;3.97;100.00;95851.28;1034168;28;20022;-71
2023/04/27 01:24:49;;;;;;;11.52;4.40;;;;;;;3.90;100.00;95847.97;1037889;28;20029;-71
2023/04/27 01:25:19;;;;;;;9.73;4.50;;;;;;;3.87;100.00;95840.63;1034157;28;20073;-71
2023/04/27 01:25:50;;;;;;;8.48;4.78;;;;;;;3.91;100.00;95851.38;1037725;28;20105;-70
2023/04/27 01:26:21;;;;;;;7.05;4.07;;;;;;;3.88;100.00;95850.00;1032549;28;20022;-71
2023/04/27 01:26:52;;;;;;;7.65;5.28;;;;;;;3.84;100.00;95843.66;1029733;28;20057;-71
2023/04/27 01:27:23;;;;;;;6.72;4.28;;;;;;;3.79;100.00;95846.13;1030080;28;20250;-71
2023/04/27 01:27:53;;;;;;;6.90;4.20;;;;;;;3.81;100.00;95851.09;1026027;28;20266;-71
2023/04/27 01:28:24;;;;;;;7.60;4.20;;;;;;;3.80;100.00;95849.50;1026021;28;20031;-71
2023/04/27 01:28:54;;;;;;;8.73;4.90;;;;;;;3.80;100.00;95852.09;1025734;28;20030;-71
2023/04/27 01:29:25;;;;;;;10.20;4.60;;;;;;;3.77;100.00;95853.31;1034199;28;20025;-71
2023/04/27 01:29:56;;;;;;;9.15;4.57;;;;;;;3.74;100.00;95854.53;1029891;28;20030;-71
2023/04/27 01:30:27;;;;;;;7.65;4.57;;;;;;;3.72;100.00;95850.56;1034057;28;20022;-70
2023/04/27 01:30:57;;;;;;;8.50;5.00;;;;;;;3.67;100.00;95847.84;1029816;28;20849;-71
2023/04/27 01:31:28;;;;;;;9.82;5.35;;;;;;;3.66;100.00;95851.47;1022301;28;20298;-71
2023/04/27 01:31:58;;;;;;;7.97;4.53;;;;;;;3.60;100.00;95845.31;1021975;29;20074;-70
2023/04/27 01:32:29;;;;;;;7.88;4.65;;;;;;;3.64;100.00;95853.47;1018102;29;20928;-71
2023/04/27 01:32:59;;;;;;;10.90;4.97;;;;;;;3.61;100.00;95851.28;1018381;28;20027;-72
2023/04/27 01:33:30;;;;;;;10.77;4.72;;;;;;;3.60;100.00;95849.72;1018211;28;20027;-71
2023/04/27 01:34:01;;;;;;;9.40;4.60;;;;;;;3.53;100.00;95855.75;1021938;28;20043;-71
2023/04/27 01:34:31;;;;;;;7.88;4.65;;;;;;;3.53;100.00;95855.75;1022137;29;20830;-71
2023/04/27 01:35:01;;;;;;;15.05;4.60;;;;;;;3.52;100.00;95854.19;1020213;28;20052;-72
2023/04/27 01:35:32;;;;;;;8.52;5.03;;;;;;;3.51;100.00;95856.97;1022084;28;20126;-70
2023/04/27 01:36:03;;;;;;;7.82;4.82;;;;;;;3.49;100.00;95854.59;1021964;28;20078;-71
2023/04/27 01:36:33;;;;;;;12.88;5.45;;;;;;;3.47;100.00;95856.63;1025937;28;20033;-71
2023/04/27 01:37:04;;;;;;;9.15;4.80;;;;;;;3.46;100.00;95859.44;1029790;28;20034;-71
2023/04/27 01:37:34;;;;;;;7.57;4.20;;;;;;;3.45;100.00;95857.81;1034055;28;20033;-71
2023/04/27 01:38:05;;;;;;;9.95;4.80;;;;;;;3.46;100.00;95854.25;1029855;28;20018;-71
2023/04/27 01:38:36;;;;;;;7.90;4.80;;;;;;;3.44;100.00;95862.22;1027301;28;20073;-71
2023/04/27 01:39:08;;;;;;;11.50;4.80;;;;;;;3.45;100.00;95861.22;1029750;28;20030;-71
2023/04/27 01:39:38;;;;;;;7.57;4.53;;;;;;;3.47;100.00;95864.41;1026034;28;20484;-71
2023/04/27 01:40:09;;;;;;;11.90;5.10;;;;;;;3.47;100.00;95861.00;1018865;29;20307;-71
2023/04/27 01:40:39;;;;;;;6.80;4.65;;;;;;;3.46;100.00;95860.22;1025791;28;20051;-71
2023/04/27 01:41:10;;;;;;;9.27;5.00;;;;;;;3.47;100.00;95863.59;1025973;28;20038;-71
2023/04/27 01:41:40;;;;;;;8.73;5.03;;;;;;;3.52;100.00;95863.75;1026294;28;20043;-71
2023/04/27 01:42:11;;;;;;;10.85;5.20;;;;;;;3.51;100.00;95859.56;1028466;28;20650;-71
2023/04/27 01:42:41;;;;;;;11.35;4.95;;;;;;;3.53;100.00;95865.34;1029856;28;20170;-71
2023/04/27 01:43:12;;;;;;;8.68;5.05;;;;;;;3.48;100.00;95863.38;1029921;28;20033;-71
2023/04/27 01:43:42;;;;;;;7.88;5.22;;;;;;;3.49;100.00;95859.78;1025757;28;20031;-71
2023/04/27 01:44:13;;;;;;;9.65;5.05;;;;;;;3.45;100.00;95850.84;1026000;28;20023;-71
2023/04/27 01:44:43;;;;;;;8.82;4.50;;;;;;;3.51;100.00;95862.94;1021873;29;20146;-71
2023/04/27 01:45:13;;;;;;;8.30;4.70;;;;;;;3.48;100.00;95865.97;1023751;28;20031;-71
2023/04/27 01:45:44;;;;;;;8.85;5.63;;;;;;;3.43;100.00;95850.28;1029924;28;20099;-70
2023/04/27 01:46:15;;;;;;;8.30;4.82;;;;;;;3.45;100.00;95863.81;1030236;28;20079;-71
2023/04/27 01:46:45;;;;;;;10.20;4.63;;;;;;;3.45;100.00;95869.00;1030659;28;20022;-72
2023/04/27 01:47:16;;;;;;;8.73;4.70;;;;;;;3.41;100.00;95857.47;1030773;28;20069;-71
2023/04/27 01:47:46;;;;;;;9.18;5.30;;;;;;;3.42;100.00;95864.25;1026960;28;20034;-71
2023/04/27 01:48:17;;;;;;;8.88;4.65;;;;;;;3.40;100.00;95861.06;1034850;28;20022;-71
2023/04/27 01:48:47;;;;;;;10.48;5.47;;;;;;;3.39;100.00;95861.31;1029952;28;20022;-71
2023/04/27 01:49:17;;;;;;;11.93;4.90;;;;;;;3.38;100.00;95860.47;1030748;28;20034;-72
2023/04/27 01:49:48;;;;;;;7.85;4.63;;;;;;;3.35;100.00;95858.31;1030720;28;20034;-70
2023/04/27 01:50:19;;;;;;;7.97;4.70;;;;;;;3.35;100.00;95868.69;1030705;28;20840;-71
2023/04/27 01:50:49;;;;;;;8.20;5.10;;;;;;;3.33;100.00;95865.53;1030417;28;20037;-71
2023/04/27 01:51:20;;;;;;;7.82;5.28;;;;;;;3.31;100.00;95863.13;1034864;28;20034;-70
2023/04/27 01:51:50;;;;;;;10.93;5.88;;;;;;;3.30;100.00;95865.97;1038911;28;20095;-71
2023/04/27 01:52:21;;;;;;;11.93;4.93;;;;;;;3.27;100.00;95867.16;1034790;28;20029;-72
2023/04/27 01:52:51;;;;;;;8.30;4.80;;;;;;;3.22;100.00;95859.25;1038736;28;20033;-71
2023/04/27 01:53:21;;;;;;;9.25;5.63;;;;;;;3.25;100.00;95863.19;1034831;28;20473;-70
2023/04/27 01:53:52;;;;;;;10.02;5.05;;;;;;;3.24;100.00;95865.00;1034735;28;20462;-71
2023/04/27 01:54:22;;;;;;;10.25;5.10;;;;;;;3.23;100.00;95866.00;1034846;28;20086;-71
2023/04/27 01:54:53;;;;;;;10.75;4.88;;;;;;;3.23;100.00;95858.25;1030725;28;20034;-71
2023/04/27 01:55:24;;;;;;;9.55;5.55;;;;;;;3.21;100.00;95867.22;1030645;28;20116;-71
2023/04/27 01:55:54;;;;;;;8.68;5.07;;;;;;;3.21;100.00;95867.22;1026567;28;20034;-71
2023/04/27 01:56:25;;;;;;;9.15;5.63;;;;;;;3.21;100.00;95864.63;1022769;29;20039;-71
2023/04/27 01:56:57;;;;;;;11.52;5.18;;;;;;;3.21;100.00;95859.44;1022992;28;20038;-71
2023/04/27 01:57:27;;;;;;;12.40;5.65;;;;;;;3.20;100.00;95863.06;1026177;28;20034;-70
2023/04/27 01:57:58;;;;;;;8.90;5.07;;;;;;;3.20;100.00;95865.66;1026560;28;20278;-71
2023/04/27 01:58:28;;;;;;;8.27;5.70;;;;;;;3.18;100.00;95862.47;1026840;28;20038;-71
2023/04/27 01:58:59;;;;;;;9.48;5.05;;;;;;;3.16;100.00;95857.50;1022314;28;20032;-71
2023/04/27 01:59:29;;;;;;;9.07;5.22;;;;;;;3.17;100.00;95866.06;1030612;28;20042;-71
2023/04/27 02:00:00;;;;;;;10.63;5.38;;;;;;;3.17;100.00;95866.06;1030731;28;20622;-71
2023/04/27 02:00:30;;;;;;;8.80;5.22;;;;;;;3.16;100.00;95867.09;1030914;28;20041;-71
2023/04/27 02:01:01;;;;;;;10.32;5.10;;;;;;;3.14;100.00;95861.31;1030442;28;20030;-71
2023/04/27 02:01:31;;;;;;;8.05;4.85;;;;;;;3.13;100.00;95863.09;1030876;28;20300;-71
2023/04/27 02:02:02;;;;;;;10.43;4.85;;;;;;;3.11;100.00;95866.91;1034957;28;20029;-71
2023/04/27 02:02:32;;;;;;;8.98;5.18;;;;;;;3.06;100.00;95859.78;1039025;28;20033;-70
2023/04/27 02:03:03;;;;;;;9.65;5.30;;;;;;;3.12;100.00;95864.13;1034437;28;20709;-71
2023/04/27 02:03:33;;;;;;;9.75;5.57;;;;;;;3.14;100.00;95862.09;1030741;28;20116;-71
2023/04/27 02:04:04;;;;;;;6.97;4.95;;;;;;;3.14;100.00;95866.50;1030754;28;20420;-71
2023/04/27 02:04:35;;;;;;;10.35;5.75;;;;;;;3.16;100.00;95865.28;1030748;28;20415;-71
2023/04/27 02:05:06;;;;;;;8.82;5.43;;;;;;;3.11;100.00;95853.94;1039078;28;20045;-71
2023/04/27 02:05:37;;;;;;;8.13;5.40;;;;;;;3.14;100.00;95866.50;1038871;28;20276;-71
2023/04/27 02:06:08;;;;;;;9.85;5.00;;;;;;;3.16;100.00;95867.09;1030439;28;20029;-71
2023/04/27 02:06:38;;;;;;;9.15;5.20;;;;;;;3.18;100.00;95867.66;1030782;28;20270;-70
2023/04/27 02:07:09;;;;;;;9.30;5.18;;;;;;;3.13;100.00;95859.72;1031002;28;20077;-71
2023/04/27 02:07:39;;;;;;;9.15;5.00;;;;;;;3.03;100.00;95840.25;1030695;28;20037;-71
2023/04/27 02:08:10;;;;;;;7.93;5.07;;;;;;;3.16;100.00;95861.91;1034618;28;20025;-71
2023/04/27 02:08:40;;;;;;;9.93;5.75;;;;;;;3.16;100.00;95859.31;1034316;28;20034;-71
2023/04/27 02:09:11;;;;;;;9.05;5.03;;;;;;;3.12;100.00;95860.72;1030535;28;20031;-72
2023/04/27 02:09:41;;;;;;;8.40;5.40;;;;;;;3.16;100.00;95865.28;1026448;28;20031;-72
2023/04/27 02:10:12;;;;;;;8.90;5.35;;;;;;;3.07;100.00;95843.22;1022729;29;20437;-71
2023/04/27 02:10:42;;;;;;;12.05;5.25;;;;;;;3.14;100.00;95862.09;1018889;28;20027;-70
2023/04/27 02:11:13;;;;;;;7.85;5.03;;;;;;;3.13;100.00;95867.50;1022571;28;20537;-71
2023/04/27 02:11:43;;;;;;;8.95;4.72;;;;;;;3.14;100.00;95869.09;1026553;28;20066;-70
2023/04/27 02:12:14;;;;;;;6.63;4.78;;;;;;;3.13;100.00;95865.69;1030897;28;20022;-71
2023/04/27 02:12:44;;;;;;;11.65;6.10;;;;;;;3.12;100.00;95863.31;1030715;28;20026;-72
2023/04/27 02:13:14;;;;;;;12.23;5.20;;;;;;;3.12;100.00;95864.13;1030617;28;20033;-71
2023/04/27 02:13:45;;;;;;;11.45;6.40;;;;;;;3.12;100.00;95868.50;1026697;28;20074;-71
2023/04/27 02:14:15;;;;;;;10.45;5.38;;;;;;;3.11;100.00;95866.91;1022719;29;20027;-72
2023/04/27 02:14:46;;;;;;;13.00;5.50;;;;;;;3.12;100.00;95868.50;1020491;29;20520;-70
2023/04/27 02:15:16;;;;;;;10.68;5.63;;;;;;;3.06;100.00;95857.19;1018948;28;20032;-71
2023/04/27 02:15:47;;;;;;;9.27;5.78;;;;;;;3.11;100.00;95864.31;1026733;28;20098;-71
2023/04/27 02:16:17;;;;;;;10.02;5.43;;;;;;;3.14;100.00;95866.50;1030486;28;20097;-71
2023/04/27 02:16:48;;;;;;;11.77;4.95;;;;;;;3.14;100.00;95862.09;1030703;28;20029;-70
2023/04/27 02:17:18;;;;;;;10.30;5.97;;;;;;;3.12;100.00;95861.53;1026783;28;20027;-71
2023/04/27 02:17:49;;;;;;;12.15;5.68;;;;;;;3.12;100.00;95864.13;1030665;28;20029;-71
2023/04/27 02:18:19;;;;;;;6.70;5.28;;;;;;;3.07;100.00;95856.97;1030539;28;20023;-71
2023/04/27 02:18:52;;;;;;;7.65;5.05;;;;;;;3.13;100.00;95868.28;1026040;28;20819;-70
2023/04/27 02:19:23;;;;;;;9.80;5.22;;;;;;;3.14;100.00;95863.91;1030674;28;20085;-71
2023/04/27 02:19:53;;;;;;;9.82;5.70;;;;;;;3.10;100.00;95865.34;1030727;28;20261;-70
2023/04/27 02:20:24;;;;;;;10.77;6.07;;;;;;;3.14;100.00;95871.69;1031488;28;20022;-71
2023/04/27 02:20:55;;;;;;;10.40;5.80;;;;;;;3.11;100.00;95861.72;1039110;28;20591;-70
2023/04/27 02:21:25;;;;;;;9.27;5.70;;;;;;;3.04;100.00;95859.19;1035309;28;20454;-71
2023/04/27 02:21:55;;;;;;;7.88;5.47;;;;;;;3.11;100.00;95874.69;1031016;28;20064;-71
2023/04/27 02:22:26;;;;;;;10.25;5.45;;;;;;;3.08;100.00;95865.53;1029958;28;20033;-71
2023/04/27 02:22:56;;;;;;;7.57;4.75;;;;;;;3.06;100.00;95865.75;1031509;28;20050;-71
2023/04/27 02:23:27;;;;;;;11.45;5.68;;;;;;;3.09;100.00;95868.94;1023350;28;20027;-71
2023/04/27 02:23:57;;;;;;;8.80;5.20;;;;;;;3.09;100.00;95871.53;1019485;29;20032;-71